sensor_id;sensor_type;location;lat;lon;timestamp;pressure;altitude;pressure_sealevel;temperature;humidity
61740;BME280;47645;45.288;12.038;2022-12-07T00:00:45;1014.4000650784557;;;6.7421875;100
61740;BME280;47645;45.288;12.038;2022-12-07T00:10:46;1014.3264777190055;;;6.619921875;100
61740;BME280;47645;45.288;12.038;2022-12-07T00:20:46;1014.0648069268931;;;6.51796875;100
61740;BME280;47645;45.288;12.038;2022-12-07T00:30:47;1013.8117521739478;;;6.3244140625;100
61740;BME280;47645;45.288;12.038;2022-12-07T00:40:54;1013.8065406764204;;;5.733203125;100
61740;BME280;47645;45.288;12.038;2022-12-07T00:50:48;1013.7604267237551;;;6.533203125;100
61740;BME280;47645;45.288;12.038;2022-12-07T01:00:48;1013.9478306446133;;;6.4365234375;100
61740;BME280;47645;45.288;12.038;2022-12-07T01:10:49;1014.0576822550001;;;6.08984375;100
61740;BME280;47645;45.288;12.038;2022-12-07T01:20:57;1014.0762759556596;;;6.4365234375;100
61740;BME280;47645;45.288;12.038;2022-12-07T01:30:58;1014.1496339000071;;;6.5841796875;100
61740;BME280;47645;45.288;12.038;2022-12-07T01:40:54;1014.0573517833004;;;6.640234375;100
61740;BME280;47645;45.288;12.038;2022-12-07T01:50:52;1014.0512828700532;;;5.7943359375;100
61740;BME280;47645;45.288;12.038;2022-12-07T02:00:51;1013.9118846214756;;;5.95234375;100
61740;BME280;47645;45.288;12.038;2022-12-07T02:10:51;1013.8338479043374;;;6.426171875;100
61740;BME280;47645;45.288;12.038;2022-12-07T02:20:57;1013.6930046325843;;;5.228515625;100
61740;BME280;47645;45.288;12.038;2022-12-07T02:30:55;1013.6842983985374;;;5.4375;100
61740;BME280;47645;45.288;12.038;2022-12-07T02:40:55;1013.5468238257824;;;5.4986328125;100
61740;BME280;47645;45.288;12.038;2022-12-07T02:50:54;1013.4402697585928;;;5.8912109375;100
61740;BME280;47645;45.288;12.038;2022-12-07T03:01:03;1013.1589426392275;;;6.38046875;100
61740;BME280;47645;45.288;12.038;2022-12-07T03:10:57;1013.2662491187624;;;6.319140625;99.94901575579944
61740;BME280;47645;45.288;12.038;2022-12-07T03:20:58;1013.4383094721165;;;5.8912109375;100
61740;BME280;47645;45.288;12.038;2022-12-07T03:30:59;1013.3004135812064;;;6.395703125;99.4051381444973
61740;BME280;47645;45.288;12.038;2022-12-07T03:40:59;1013.270298207058;;;6.30390625;99.7626157763473
61740;BME280;47645;45.288;12.038;2022-12-07T03:51:02;1013.2890749845975;;;6.5841796875;97.988330506434
61740;BME280;47645;45.288;12.038;2022-12-07T04:00:56;1013.2720574006818;;;6.4365234375;98.46756443445598
61740;BME280;47645;45.288;12.038;2022-12-07T04:10:57;1013.2072459406921;;;6.3244140625;99.60024521176877
61740;BME280;47645;45.288;12.038;2022-12-07T04:20:57;1013.2058037891497;;;6.40078125;98.64903777984989
61740;BME280;47645;45.288;12.038;2022-12-07T04:30:58;1013.0287678828006;;;5.656640625;100
61740;BME280;47645;45.288;12.038;2022-12-07T04:40:58;1012.9400293074874;;;5.2845703125;100
61740;BME280;47645;45.288;12.038;2022-12-07T04:50:59;1012.8830604809915;;;4.8515625;100
61740;BME280;47645;45.288;12.038;2022-12-07T05:00:59;1012.766432601653;;;5.66171875;100
61740;BME280;47645;45.288;12.038;2022-12-07T05:11:00;1012.7480202928419;;;4.8107421875;100
61740;BME280;47645;45.288;12.038;2022-12-07T05:21:00;1012.7924022019273;;;4.8515625;100
61740;BME280;47645;45.288;12.038;2022-12-07T05:31:01;1012.8090035164466;;;5.2490234375;100
61740;BME280;47645;45.288;12.038;2022-12-07T05:41:02;1012.9174161495037;;;4.341796875;100
61740;BME280;47645;45.288;12.038;2022-12-07T05:51:01;1012.7709795846218;;;5.1216796875;100
61740;BME280;47645;45.288;12.038;2022-12-07T06:01:02;1012.857352873988;;;4.7087890625;100
61740;BME280;47645;45.288;12.038;2022-12-07T06:21:03;1013.0228025922853;;;5.508984375;99.66890281957383
61740;BME280;47645;45.288;12.038;2022-12-07T06:31:04;1012.9260036337728;;;5.5955078125;98.50288825777659
61740;BME280;47645;45.288;12.038;2022-12-07T06:41:04;1013.0126708965092;;;5.5853515625;97.60691972708607
61740;BME280;47645;45.288;12.038;2022-12-07T06:51:04;1013.0105808617825;;;5.4833984375;97.66214420806615
61740;BME280;47645;45.288;12.038;2022-12-07T07:01:09;1013.034484390583;;;5.3712890625;96.46588544956533
61740;BME280;47645;45.288;12.038;2022-12-07T07:11:05;1013.1473057288479;;;5.3509765625;96.82305426881697
61740;BME280;47645;45.288;12.038;2022-12-07T07:21:05;1013.2518052362651;;;5.0451171875;98.27368346851327
61740;BME280;47645;45.288;12.038;2022-12-07T07:31:06;1013.4515790123552;;;5.315234375;96.32184108187943
61740;BME280;47645;45.288;12.038;2022-12-07T07:41:06;1013.4159235609806;;;5.19296875;96.48501113027595
61740;BME280;47645;45.288;12.038;2022-12-07T07:51:07;1013.4430147322295;;;5.0197265625;97.42024459207815
61740;BME280;47645;45.288;12.038;2022-12-07T08:01:07;1013.4693951113637;;;5.1369140625;97.1089060106042
61740;BME280;47645;45.288;12.038;2022-12-07T08:11:08;1013.584206876514;;;4.0921875;100
61740;BME280;47645;45.288;12.038;2022-12-07T08:21:11;1013.502009021729;;;4.4845703125;99.76458041496622
61740;BME280;47645;45.288;12.038;2022-12-07T08:31:11;1013.5544689497198;;;4.5099609375;98.50716791758964
61740;BME280;47645;45.288;12.038;2022-12-07T08:41:08;1013.6361570182629;;;4.897265625;93.57521673554773
61740;BME280;47645;45.288;12.038;2022-12-07T08:51:09;1013.7727193796845;;;5.396875;93.84803938907429
61740;BME280;47645;45.288;12.038;2022-12-07T09:01:09;1013.7591103710371;;;5.646484375;91.09590424465617
61740;BME280;47645;45.288;12.038;2022-12-07T09:11:09;1013.7451603139815;;;5.977734375;90.98338840046783
61740;BME280;47645;45.288;12.038;2022-12-07T09:21:10;1013.7436477384085;;;6.512890625;85.47353750988351
61740;BME280;47645;45.288;12.038;2022-12-07T09:31:10;1013.6035880588669;;;7.2162109375;82.92464549918819
61740;BME280;47645;45.288;12.038;2022-12-07T09:41:10;1013.5184272189531;;;7.3130859375;84.56289912330523
61740;BME280;47645;45.288;12.038;2022-12-07T09:51:15;1013.4396109441931;;;7.6748046875;77.98396397294222
61740;BME280;47645;45.288;12.038;2022-12-07T10:01:14;1013.3430753652184;;;8.235546875;78.70014615508634
61740;BME280;47645;45.288;12.038;2022-12-07T10:11:12;1013.2299217029894;;;9.0203125;72.83919922377524
61740;BME280;47645;45.288;12.038;2022-12-07T10:21:15;1013.1386243515282;;;9.4740234375;73.24256264948872
61740;BME280;47645;45.288;12.038;2022-12-07T10:31:16;1013.1516002378575;;;9.67265625;68.66197859473841
61740;BME280;47645;45.288;12.038;2022-12-07T10:41:13;1013.1794186599645;;;10.0345703125;66.89115910000093
61740;BME280;47645;45.288;12.038;2022-12-07T10:51:19;1013.0074028825247;;;10.279296875;64.2676964807384
61740;BME280;47645;45.288;12.038;2022-12-07T11:01:21;1012.9065222898458;;;11.0029296875;69.95423894606877
61740;BME280;47645;45.288;12.038;2022-12-07T11:11:21;1012.8171983506379;;;11.0896484375;60.31310639981241
61740;BME280;47645;45.288;12.038;2022-12-07T11:21:20;1012.7240726847746;;;11.069140625;60.19447366667123
61740;BME280;47645;45.288;12.038;2022-12-07T11:31:21;1012.6822337599771;;;11.1048828125;64.63634705215604
61740;BME280;47645;45.288;12.038;2022-12-07T11:41:20;1012.4066226194022;;;11.711328125;61.78819176029715
61740;BME280;47645;45.288;12.038;2022-12-07T11:51:20;1012.3616529529016;;;11.8287109375;57.95925267429787
61740;BME280;47645;45.288;12.038;2022-12-07T12:01:31;1012.3034791974944;;;11.5890625;59.380959146256885
61740;BME280;47645;45.288;12.038;2022-12-07T12:11:34;1012.1072659861461;;;11.4412109375;60.504272833125135
61740;BME280;47645;45.288;12.038;2022-12-07T12:21:20;1012.0726590046261;;;11.2578125;62.076352544129584
61740;BME280;47645;45.288;12.038;2022-12-07T12:31:33;1011.9971067788236;;;11.278125;61.97075440359982
61740;BME280;47645;45.288;12.038;2022-12-07T12:42:43;1011.9260707406472;;;11.0794921875;62.76987196109687
61740;BME280;47645;45.288;12.038;2022-12-07T12:51:39;1011.8536835787272;;;11.0896484375;63.194467540442886
61740;BME280;47645;45.288;12.038;2022-12-07T13:01:38;1011.8921611994332;;;11.13046875;64.55975203299502
61740;BME280;47645;45.288;12.038;2022-12-07T13:11:29;1011.7689846177682;;;11.34453125;62.86860310541336
61740;BME280;47645;45.288;12.038;2022-12-07T13:21:58;1011.7266887061784;;;11.3087890625;65.76421401710198
61740;BME280;47645;45.288;12.038;2022-12-07T13:31:34;1011.7232295336503;;;11.56875;74.16969237124457
61740;BME280;47645;45.288;12.038;2022-12-07T13:41:26;1011.6948072681298;;;11.59921875;75.10202195020692
61740;BME280;47645;45.288;12.038;2022-12-07T13:51:27;1011.6928741336809;;;11.4921875;71.53425847103267
61740;BME280;47645;45.288;12.038;2022-12-07T14:01:26;1011.7231518457992;;;11.3392578125;76.41102414630572
61740;BME280;47645;45.288;12.038;2022-12-07T14:11:29;1011.7415876807363;;;11.4361328125;77.78919287045125
61740;BME280;47645;45.288;12.038;2022-12-07T14:21:28;1011.733361430387;;;11.069140625;79.84889716285585
61740;BME280;47645;45.288;12.038;2022-12-07T14:31:27;1011.68301000768;;;10.5443359375;81.94011180740706
61740;BME280;47645;45.288;12.038;2022-12-07T14:42:00;1011.6840477859079;;;10.309765625;83.48444379756097
61740;BME280;47645;45.288;12.038;2022-12-07T14:51:39;1011.763853258452;;;10.2435546875;83.34462314784281
61740;BME280;47645;45.288;12.038;2022-12-07T15:01:29;1011.8183583192471;;;10.1671875;83.26520319101495
61740;BME280;47645;45.288;12.038;2022-12-07T15:11:30;1011.9575963516525;;;9.8001953125;85.76576504994021
61740;BME280;47645;45.288;12.038;2022-12-07T15:21:30;1012.0022273423524;;;9.626953125;84.78496089831951
61740;BME280;47645;45.288;12.038;2022-12-07T15:31:32;1012.0437987050655;;;9.3515625;85.77059509924247
61740;BME280;47645;45.288;12.038;2022-12-07T15:41:31;1012.0579239837061;;;9.122265625;86.13780476662008
61740;BME280;47645;45.288;12.038;2022-12-07T15:51:33;1012.0787948586168;;;8.898046875;87.28162059548565
61740;BME280;47645;45.288;12.038;2022-12-07T16:01:32;1012.134389876873;;;8.704296875;88.40155407143604
61740;BME280;47645;45.288;12.038;2022-12-07T16:11:33;1012.2157493321968;;;8.5412109375;88.86233210121486
61740;BME280;47645;45.288;12.038;2022-12-07T16:21:34;1012.3218091017015;;;8.342578125;89.67990273070605
61740;BME280;47645;45.288;12.038;2022-12-07T16:31:34;1012.2474960289082;;;8.0775390625;90.50732459060701
61740;BME280;47645;45.288;12.038;2022-12-07T16:41:35;1012.2980669508956;;;7.9603515625;90.67869657953754
61740;BME280;47645;45.288;12.038;2022-12-07T16:51:37;1012.2649364687395;;;7.730859375;91.67853024362768
61740;BME280;47645;45.288;12.038;2022-12-07T17:01:37;1012.3364817734396;;;7.603515625;91.9152209707692
61740;BME280;47645;45.288;12.038;2022-12-07T17:11:36;1012.3545762236537;;;7.5525390625;92.12713987983828
61740;BME280;47645;45.288;12.038;2022-12-07T17:21:37;1012.3053590513996;;;7.47109375;91.99742154999755
61740;BME280;47645;45.288;12.038;2022-12-07T17:31:37;1012.3220719873111;;;7.4099609375;92.29574118821914
61740;BME280;47645;45.288;12.038;2022-12-07T17:42:47;1012.26996884504;;;7.3486328125;92.26186879535437
61740;BME280;47645;45.288;12.038;2022-12-07T18:01:39;1012.1840902062648;;;7.246875;92.13928478300696
61740;BME280;47645;45.288;12.038;2022-12-07T18:11:38;1012.2100940419476;;;7.1041015625;92.43322026949598
61740;BME280;47645;45.288;12.038;2022-12-07T18:21:39;1012.2273713401087;;;6.726953125;93.68348011609105
61740;BME280;47645;45.288;12.038;2022-12-07T18:31:39;1012.271803067412;;;6.6556640625;93.60501149623839
61740;BME280;47645;45.288;12.038;2022-12-07T18:41:40;1012.278459112652;;;6.533203125;94.58937976511992
61740;BME280;47645;45.288;12.038;2022-12-07T18:51:41;1012.2987730506071;;;6.512890625;94.26449386945707
61740;BME280;47645;45.288;12.038;2022-12-07T19:01:43;1012.2934916598045;;;6.5435546875;93.63290260493044
61740;BME280;47645;45.288;12.038;2022-12-07T19:12:02;1012.2940646170179;;;6.385546875;94.2505263280657
61740;BME280;47645;45.288;12.038;2022-12-07T19:21:41;1012.4680659548923;;;5.5650390625;100
61740;BME280;47645;45.288;12.038;2022-12-07T19:31:42;1012.5092477358114;;;5.83515625;100
61740;BME280;47645;45.288;12.038;2022-12-07T19:41:44;1012.4824304584617;;;5.3203125;100
61740;BME280;47645;45.288;12.038;2022-12-07T19:51:50;1012.4201874961944;;;5.4732421875;100
61740;BME280;47645;45.288;12.038;2022-12-07T20:01:44;1012.482670944587;;;5.519140625;100
61740;BME280;47645;45.288;12.038;2022-12-07T20:21:45;1012.5634052547433;;;6.3345703125;96.01161879774482
61740;BME280;47645;45.288;12.038;2022-12-07T20:31:46;1012.4870854030953;;;6.298828125;96.28079947697047
61740;BME280;47645;45.288;12.038;2022-12-07T20:42:50;1012.5056087877639;;;5.7126953125;99.85578307882523
61740;BME280;47645;45.288;12.038;2022-12-07T20:51:46;1012.4583456115117;;;5.4833984375;100
61740;BME280;47645;45.288;12.038;2022-12-07T21:01:46;1012.443653073478;;;5.3916015625;99.80925027060367
61740;BME280;47645;45.288;12.038;2022-12-07T21:11:46;1012.4590159277666;;;5.228515625;99.06651410598855
61740;BME280;47645;45.288;12.038;2022-12-07T21:21:47;1012.5406164479693;;;5.1267578125;98.23621550134354
61740;BME280;47645;45.288;12.038;2022-12-07T21:31:47;1012.5558262025517;;;5.2490234375;98.68183922467213
61740;BME280;47645;45.288;12.038;2022-12-07T21:41:48;1012.6893398337053;;;5.85546875;95.60458596334193
61740;BME280;47645;45.288;12.038;2022-12-07T21:51:48;1012.6754929443825;;;5.5751953125;95.30812433776649
61740;BME280;47645;45.288;12.038;2022-12-07T22:01:50;1012.5694473966927;;;4.983984375;96.8635533286639
61740;BME280;47645;45.288;12.038;2022-12-07T22:11:49;1012.5059801778464;;;4.76484375;97.60098451538468
61740;BME280;47645;45.288;12.038;2022-12-07T22:21:50;1012.5084916459197;;;4.8107421875;97.29013927764119
61740;BME280;47645;45.288;12.038;2022-12-07T22:31:50;1012.4627038156208;;;4.994140625;96.73963393091363
61740;BME280;47645;45.288;12.038;2022-12-07T22:41:50;1012.4787669504633;;;5.11640625;95.5455882960361
61740;BME280;47645;45.288;12.038;2022-12-07T22:51:51;1012.4616463696213;;;4.9431640625;94.8257668858188
61740;BME280;47645;45.288;12.038;2022-12-07T23:01:51;1012.3779111965249;;;5.0146484375;94.35342826406543
61740;BME280;47645;45.288;12.038;2022-12-07T23:21:53;1012.2979300649437;;;5.1521484375;92.34381842999375
61740;BME280;47645;45.288;12.038;2022-12-07T23:31:53;1012.2583395157005;;;5.5751953125;92.5679487874273
61740;BME280;47645;45.288;12.038;2022-12-07T23:41:54;1012.2720425602082;;;5.1828125;92.10141648637048
61740;BME280;47645;45.288;12.038;2022-12-07T23:51:54;1012.1907449693514;;;5.0400390625;93.90204480815089
